Time;durP1;ratioP1;P1;durP2;ratioP2;P2;SDS_P1;SDS_P2;PMS_P1;PMS_P2;Temp;Humidity;BMP_temperature;BMP_pressure;BME280_temperature;BME280_humidity;BME280_pressure;Samples;Min_cycle;Max_cycle;Signal;HPM_P1;HPM_P2
2022/09/16 00:00:42;;;;;;;22.55;3.92;;;23.50;81.60;;;;;;5034268;28;20532;-68
2022/09/16 00:03:08;;;;;;;19.90;4.05;;;23.50;81.50;;;;;;5034532;28;20025;-68
2022/09/16 00:05:36;;;;;;;24.23;3.72;;;23.50;81.40;;;;;;5034245;28;20055;-68
2022/09/16 00:08:02;;;;;;;18.85;3.10;;;23.50;81.30;;;;;;5034375;28;20033;-68
2022/09/16 00:10:28;;;;;;;17.65;2.78;;;23.50;80.90;;;;;;5033898;28;20087;-68
2022/09/16 00:12:54;;;;;;;20.05;3.30;;;23.50;80.40;;;;;;5034395;28;20026;-68
2022/09/16 00:15:20;;;;;;;17.98;2.83;;;23.50;80.50;;;;;;5034103;28;20108;-68
2022/09/16 00:17:45;;;;;;;15.75;3.88;;;23.40;80.30;;;;;;5034243;28;20518;-68
2022/09/16 00:20:11;;;;;;;18.73;3.60;;;23.40;80.40;;;;;;5034228;28;20025;-68
2022/09/16 00:22:37;;;;;;;18.05;3.55;;;23.50;80.50;;;;;;5033677;28;20017;-68
2022/09/16 00:25:03;;;;;;;20.02;3.10;;;23.40;80.50;;;;;;5033794;28;20038;-68
2022/09/16 00:27:28;;;;;;;20.35;4.25;;;23.50;80.60;;;;;;5034116;28;20021;-68
2022/09/16 00:29:54;;;;;;;18.85;3.80;;;23.50;80.70;;;;;;5033913;28;20072;-67
2022/09/16 00:32:19;;;;;;;23.35;3.83;;;23.40;80.80;;;;;;5033971;28;20540;-68
2022/09/16 00:34:45;;;;;;;21.45;3.22;;;23.40;81.00;;;;;;5033822;28;20038;-67
2022/09/16 00:37:11;;;;;;;15.90;3.53;;;23.40;81.00;;;;;;5033707;28;20476;-68
2022/09/16 00:39:36;;;;;;;24.85;3.58;;;23.40;81.10;;;;;;5033661;28;20471;-68
2022/09/16 00:42:03;;;;;;;24.30;3.65;;;23.40;81.30;;;;;;5033824;28;20565;-68
2022/09/16 00:44:54;;;;;;;40.78;5.28;;;23.40;81.60;;;;;;5033334;28;20072;-68
2022/09/16 00:47:27;;;;;;;37.65;5.72;;;23.40;82.30;;;;;;5033650;28;20029;-68
2022/09/16 00:49:58;;;;;;;39.38;6.35;;;23.40;82.70;;;;;;5033251;28;20045;-68
2022/09/16 00:52:25;;;;;;;30.83;5.50;;;23.50;83.10;;;;;;5033859;28;20052;-68
2022/09/16 00:54:51;;;;;;;29.55;5.32;;;23.50;83.10;;;;;;5033436;28;20388;-67
2022/09/16 00:57:18;;;;;;;29.35;4.65;;;23.50;82.60;;;;;;5033351;28;20029;-73
2022/09/16 00:59:48;;;;;;;24.23;4.65;;;23.50;81.90;;;;;;5029733;28;20036;-68
2022/09/16 01:02:17;;;;;;;23.90;4.15;;;23.50;81.10;;;;;;5030499;28;20148;-68
2022/09/16 01:04:56;;;;;;;22.77;3.85;;;23.60;80.80;;;;;;5031397;28;20033;-68
2022/09/16 01:07:44;;;;;;;15.02;2.35;;;23.60;80.40;;;;;;5032811;28;20116;-68
2022/09/16 01:10:12;;;;;;;10.45;1.75;;;23.60;79.40;;;;;;5033098;28;20109;-68
2022/09/16 01:12:40;;;;;;;10.30;1.92;;;23.60;78.60;;;;;;5033150;28;20049;-68
2022/09/16 01:15:06;;;;;;;7.68;1.95;;;23.50;77.60;;;;;;5032865;28;20375;-68
2022/09/16 01:18:06;;;;;;;9.05;1.25;;;23.50;77.50;;;;;;5033231;28;20108;-68
2022/09/16 01:20:35;;;;;;;8.32;1.88;;;23.50;76.70;;;;;;5032842;28;20086;-68
2022/09/16 01:23:34;;;;;;;11.18;1.48;;;23.50;76.10;;;;;;5033484;28;20025;-68
2022/09/16 01:26:21;;;;;;;7.47;1.33;;;23.40;75.60;;;;;;5032975;28;20491;-68
2022/09/16 01:29:25;;;;;;;7.22;1.63;;;23.40;75.20;;;;;;5032674;28;20025;-68
2022/09/16 01:32:24;;;;;;;6.80;0.77;;;23.40;75.20;;;;;;5032869;28;20491;-68
2022/09/16 01:34:58;;;;;;;1.55;0.50;;;23.30;73.10;;;;;;5033158;28;20494;-68
2022/09/16 01:37:43;;;;;;;2.65;0.47;;;23.30;71.90;;;;;;5032836;28;20021;-68
2022/09/16 01:40:21;;;;;;;0.95;0.50;;;23.30;71.60;;;;;;5032703;28;20391;-68
2022/09/16 01:42:56;;;;;;;1.08;0.43;;;23.20;70.80;;;;;;5032668;28;20029;-67
2022/09/16 01:45:54;;;;;;;5.53;0.77;;;23.20;70.00;;;;;;5032737;28;20033;-67
2022/09/16 01:48:36;;;;;;;4.63;0.50;;;23.20;70.00;;;;;;5032750;28;20101;-67
2022/09/16 01:51:31;;;;;;;1.00;0.50;;;23.20;69.30;;;;;;5032540;28;20049;-67
2022/09/16 01:54:02;;;;;;;5.72;0.70;;;23.10;68.60;;;;;;5032669;28;20022;-67
2022/09/16 01:56:31;;;;;;;2.78;0.65;;;23.10;68.80;;;;;;5032613;28;20068;-67
2022/09/16 01:59:14;;;;;;;3.92;0.55;;;23.10;68.70;;;;;;5032718;28;20025;-68
2022/09/16 02:02:17;;;;;;;3.35;0.52;;;23.10;68.80;;;;;;5032924;28;20112;-67
2022/09/16 02:04:53;;;;;;;2.15;0.50;;;23.10;68.00;;;;;;5000791;28;20053;-67
2022/09/16 02:07:30;;;;;;;2.67;0.65;;;23.10;68.10;;;;;;5032436;28;20041;-68
2022/09/16 02:10:05;;;;;;;7.20;0.52;;;23.10;68.30;;;;;;5032510;28;20025;-69
2022/09/16 02:12:36;;;;;;;1.30;0.45;;;23.10;68.20;;;;;;5032562;28;20056;-70
2022/09/16 02:15:06;;;;;;;2.95;0.50;;;23.10;68.10;;;;;;5032361;28;20105;-67
2022/09/16 02:17:36;;;;;;;4.22;0.40;;;23.10;67.90;;;;;;5034218;28;20116;-68
2022/09/16 02:20:17;;;;;;;2.20;0.60;;;23.00;68.10;;;;;;5036150;28;20028;-68
2022/09/16 02:22:47;;;;;;;2.25;0.60;;;23.00;67.80;;;;;;5036492;28;20097;-67
2022/09/16 02:25:17;;;;;;;2.78;0.60;;;23.00;68.00;;;;;;5036164;28;20091;-67
2022/09/16 02:27:45;;;;;;;2.38;0.75;;;23.00;68.20;;;;;;5036082;28;20535;-67
2022/09/16 02:30:16;;;;;;;5.80;1.33;;;23.00;68.60;;;;;;5036169;28;20037;-67
2022/09/16 02:32:49;;;;;;;3.33;0.88;;;23.00;68.90;;;;;;5036234;28;20052;-67
2022/09/16 02:35:18;;;;;;;4.70;0.85;;;23.00;69.30;;;;;;5036157;28;20052;-67
2022/09/16 02:37:53;;;;;;;2.58;0.75;;;22.90;69.60;;;;;;5036230;28;20033;-69
2022/09/16 02:40:43;;;;;;;6.43;0.93;;;22.90;69.80;;;;;;5035958;28;20032;-70
2022/09/16 02:43:09;;;;;;;4.03;0.90;;;22.90;70.30;;;;;;5036024;28;20049;-69
2022/09/16 02:46:02;;;;;;;2.72;0.73;;;22.90;70.70;;;;;;5035727;28;20061;-69
2022/09/16 02:49:13;;;;;;;7.05;0.93;;;22.90;71.00;;;;;;5034113;28;20414;-70
2022/09/16 02:52:27;;;;;;;6.50;1.20;;;22.90;71.50;;;;;;4999998;28;20396;-69
2022/09/16 02:55:27;;;;;;;5.35;0.98;;;22.90;71.70;;;;;;5002485;28;20199;-70
2022/09/16 02:57:52;;;;;;;4.50;1.25;;;22.80;72.00;;;;;;5022715;28;20060;-69
2022/09/16 03:00:19;;;;;;;3.53;0.82;;;22.80;72.40;;;;;;5035834;28;20057;-69
2022/09/16 03:02:45;;;;;;;7.40;1.00;;;22.80;72.70;;;;;;5035443;28;20033;-69
2022/09/16 03:05:11;;;;;;;6.25;0.80;;;22.80;73.10;;;;;;5035332;28;20380;-69
2022/09/16 03:07:40;;;;;;;3.28;0.85;;;22.80;73.60;;;;;;5035314;28;20091;-69
2022/09/16 03:10:08;;;;;;;5.43;1.02;;;22.80;73.80;;;;;;5035639;28;20029;-69
2022/09/16 03:12:53;;;;;;;5.38;0.90;;;22.70;73.70;;;;;;5035523;28;20112;-69
2022/09/16 03:15:33;;;;;;;3.53;0.80;;;22.80;73.30;;;;;;5035235;28;20152;-69
2022/09/16 03:17:58;;;;;;;4.60;0.80;;;22.70;73.40;;;;;;5035335;28;20030;-69
2022/09/16 03:21:06;;;;;;;7.13;0.88;;;22.70;73.80;;;;;;5035037;28;20021;-69
2022/09/16 03:23:44;;;;;;;7.00;0.93;;;22.80;74.10;;;;;;5007216;28;20129;-69
2022/09/16 03:26:19;;;;;;;5.30;1.25;;;22.70;74.20;;;;;;5035187;28;20047;-69
2022/09/16 03:28:58;;;;;;;4.03;0.93;;;22.70;74.30;;;;;;5034814;28;20153;-68
2022/09/16 03:31:38;;;;;;;4.22;0.70;;;22.70;74.10;;;;;;5035306;28;20053;-68
2022/09/16 03:34:09;;;;;;;3.05;1.05;;;22.70;73.90;;;;;;5034964;28;20399;-69
2022/09/16 03:36:49;;;;;;;2.63;1.10;;;22.70;73.90;;;;;;5034982;28;20104;-69
2022/09/16 03:39:15;;;;;;;2.83;1.10;;;22.60;73.90;;;;;;5034916;28;20025;-69
2022/09/16 03:41:41;;;;;;;6.90;1.88;;;22.60;74.10;;;;;;5034572;28;20068;-69
2022/09/16 03:44:07;;;;;;;5.57;1.30;;;22.60;74.40;;;;;;5034846;28;20108;-71
2022/09/16 03:46:34;;;;;;;3.13;0.90;;;22.60;74.50;;;;;;5034744;28;20109;-68
2022/09/16 03:48:59;;;;;;;2.92;1.08;;;22.50;74.70;;;;;;5034631;28;20033;-81
2022/09/16 03:51:25;;;;;;;7.32;1.30;;;22.50;75.00;;;;;;5034531;28;20068;-69
2022/09/16 03:53:52;;;;;;;5.13;1.35;;;22.40;75.00;;;;;;5034275;28;20021;-69
2022/09/16 03:56:18;;;;;;;5.78;1.30;;;22.50;75.50;;;;;;5034443;28;20034;-69
2022/09/16 03:58:46;;;;;;;2.47;0.75;;;22.40;75.50;;;;;;5034659;28;20067;-69
2022/09/16 04:01:13;;;;;;;5.32;1.30;;;22.50;75.60;;;;;;5034935;28;20047;-81
2022/09/16 04:03:39;;;;;;;3.00;0.90;;;22.50;75.50;;;;;;5034282;28;20021;-69
2022/09/16 04:06:05;;;;;;;4.38;1.02;;;22.50;75.60;;;;;;5034556;28;20026;-68
2022/09/16 04:08:31;;;;;;;5.20;1.05;;;22.50;75.90;;;;;;5034473;28;20044;-69
2022/09/16 04:10:59;;;;;;;8.07;1.10;;;22.50;76.00;;;;;;5034184;28;20055;-69
2022/09/16 04:13:27;;;;;;;5.03;1.00;;;22.50;76.00;;;;;;5034217;28;20108;-67
2022/09/16 04:15:53;;;;;;;4.88;1.30;;;22.50;76.00;;;;;;5034044;28;20112;-73
2022/09/16 04:18:18;;;;;;;4.85;1.10;;;22.50;76.00;;;;;;5033984;28;20072;-69
2022/09/16 04:20:44;;;;;;;9.70;0.85;;;22.50;75.90;;;;;;5033989;28;20030;-69
2022/09/16 04:23:10;;;;;;;2.45;0.75;;;22.50;75.80;;;;;;5034268;28;20504;-68
2022/09/16 04:25:36;;;;;;;3.78;0.70;;;22.50;75.40;;;;;;5033905;28;20037;-69
2022/09/16 04:28:01;;;;;;;3.50;0.98;;;22.50;75.10;;;;;;5033965;28;20021;-69
2022/09/16 04:30:27;;;;;;;6.93;0.93;;;22.50;75.00;;;;;;5033794;28;20028;-69
2022/09/16 04:32:54;;;;;;;4.88;0.60;;;22.50;74.80;;;;;;5032484;28;20628;-69
2022/09/16 04:35:20;;;;;;;2.38;0.80;;;22.50;74.70;;;;;;5030603;28;20034;-69
2022/09/16 04:37:46;;;;;;;2.28;0.70;;;22.50;74.60;;;;;;5031559;28;20025;-69
2022/09/16 04:40:12;;;;;;;2.97;0.68;;;22.40;74.60;;;;;;5033266;28;20029;-69
2022/09/16 04:42:37;;;;;;;3.33;0.90;;;22.40;74.90;;;;;;5033714;28;20048;-69
2022/09/16 04:45:04;;;;;;;5.15;1.23;;;22.40;75.20;;;;;;5033512;28;20393;-70
2022/09/16 04:47:30;;;;;;;6.13;0.80;;;22.50;75.30;;;;;;5033500;28;20026;-69
2022/09/16 04:49:55;;;;;;;2.47;0.80;;;22.50;75.40;;;;;;5033626;28;20084;-69
2022/09/16 04:52:21;;;;;;;2.53;0.90;;;22.50;75.70;;;;;;5033822;28;20479;-68
2022/09/16 04:54:47;;;;;;;3.85;0.88;;;22.40;76.30;;;;;;5033308;28;20483;-69
2022/09/16 04:57:12;;;;;;;2.78;0.90;;;22.40;76.50;;;;;;5033237;28;20029;-69
2022/09/16 04:59:38;;;;;;;4.07;1.30;;;22.40;76.50;;;;;;5033506;28;20029;-69
2022/09/16 05:02:04;;;;;;;0.88;0.50;;;22.40;76.40;;;;;;5033812;28;20036;-68
2022/09/16 05:04:29;;;;;;;1.10;0.60;;;22.30;75.50;;;;;;5033426;28;20120;-69
2022/09/16 05:06:55;;;;;;;1.20;0.80;;;22.30;75.00;;;;;;5033274;28;20025;-69
2022/09/16 05:09:21;;;;;;;2.33;0.60;;;22.30;74.70;;;;;;5033115;28;20033;-67
2022/09/16 05:11:47;;;;;;;3.13;1.10;;;22.30;74.80;;;;;;5033186;28;20032;-69
2022/09/16 05:14:16;;;;;;;13.43;1.60;;;22.30;74.80;;;;;;5033134;28;20446;-69
2022/09/16 05:16:43;;;;;;;2.55;1.15;;;22.30;74.40;;;;;;5033207;28;20108;-69
2022/09/16 05:19:11;;;;;;;4.53;1.00;;;22.30;74.20;;;;;;5033232;28;20048;-69
2022/09/16 05:21:38;;;;;;;3.88;0.65;;;22.30;74.50;;;;;;5032938;28;20026;-69
2022/09/16 05:24:07;;;;;;;2.13;0.50;;;22.30;75.00;;;;;;5032860;28;20100;-69
2022/09/16 05:26:35;;;;;;;3.35;0.63;;;22.30;75.40;;;;;;5033031;28;20129;-69
2022/09/16 05:29:03;;;;;;;2.33;0.68;;;22.30;75.80;;;;;;5032747;28;20052;-68
2022/09/16 05:31:31;;;;;;;4.43;1.15;;;22.20;76.10;;;;;;5033022;28;20022;-68
2022/09/16 05:34:03;;;;;;;2.55;0.90;;;22.10;76.80;;;;;;5032607;28;20034;-69
2022/09/16 05:36:31;;;;;;;4.18;1.23;;;22.10;77.80;;;;;;5033078;28;20086;-69
2022/09/16 05:38:57;;;;;;;3.55;0.73;;;22.00;78.70;;;;;;5032919;28;20025;-69
2022/09/16 05:41:23;;;;;;;2.25;0.70;;;22.00;79.50;;;;;;5032847;28;20488;-69
2022/09/16 05:43:49;;;;;;;4.43;1.10;;;21.90;80.20;;;;;;5032524;28;20048;-69
2022/09/16 05:46:21;;;;;;;2.97;0.88;;;21.90;80.60;;;;;;5032776;28;20037;-69
2022/09/16 05:48:47;;;;;;;2.42;0.55;;;21.80;80.80;;;;;;5032837;28;20075;-68
2022/09/16 05:51:17;;;;;;;3.03;0.90;;;21.80;80.90;;;;;;5032497;28;20061;-69
2022/09/16 05:53:44;;;;;;;7.05;1.05;;;21.70;80.90;;;;;;5036540;28;20091;-69
2022/09/16 05:56:12;;;;;;;6.25;1.00;;;21.60;81.00;;;;;;5036775;28;20034;-69
2022/09/16 05:58:38;;;;;;;2.90;0.70;;;21.60;81.10;;;;;;5037024;28;20407;-69
2022/09/16 06:01:12;;;;;;;3.38;0.80;;;21.60;81.10;;;;;;5036842;28;20029;-69
2022/09/16 06:03:39;;;;;;;4.43;1.00;;;21.60;81.40;;;;;;5036332;28;20025;-69
2022/09/16 06:06:25;;;;;;;15.60;1.80;;;21.50;81.90;;;;;;5033357;28;20037;-70
2022/09/16 06:08:53;;;;;;;12.90;2.28;;;21.50;82.90;;;;;;5023390;28;20116;-78
2022/09/16 06:11:19;;;;;;;8.30;1.30;;;21.40;84.00;;;;;;5036014;28;20112;-69
2022/09/16 06:13:45;;;;;;;11.68;2.33;;;21.40;85.00;;;;;;5035778;28;20426;-68
2022/09/16 06:16:13;;;;;;;22.45;3.38;;;21.40;85.50;;;;;;5035530;28;20025;-72
2022/09/16 06:18:39;;;;;;;19.10;3.42;;;21.40;85.30;;;;;;5036289;28;20056;-76
2022/09/16 06:21:08;;;;;;;21.15;4.28;;;21.30;85.90;;;;;;5036049;28;20402;-75
2022/09/16 06:23:35;;;;;;;14.48;2.90;;;21.30;86.90;;;;;;5035273;28;20033;-75
2022/09/16 06:26:10;;;;;;;14.95;2.80;;;21.10;87.70;;;;;;5034748;28;20320;-76
2022/09/16 06:28:36;;;;;;;8.40;2.40;;;21.10;88.10;;;;;;5035007;28;20504;-68
2022/09/16 06:31:13;;;;;;;17.88;2.60;;;21.00;88.90;;;;;;5034637;28;20033;-68
2022/09/16 06:33:39;;;;;;;8.15;2.08;;;21.00;89.10;;;;;;5034217;28;20029;-70
2022/09/16 06:36:11;;;;;;;8.38;2.17;;;20.90;89.40;;;;;;5034823;28;20379;-75
2022/09/16 06:38:37;;;;;;;5.97;1.50;;;20.90;89.90;;;;;;5034847;28;20113;-76
2022/09/16 06:41:09;;;;;;;5.55;1.52;;;20.80;90.10;;;;;;5034599;28;20022;-73
2022/09/16 06:43:35;;;;;;;10.07;1.60;;;20.80;90.30;;;;;;5034271;28;20045;-69
2022/09/16 06:46:12;;;;;;;9.82;1.50;;;20.80;90.30;;;;;;5034045;28;20712;-71
2022/09/16 06:48:39;;;;;;;7.65;1.58;;;20.80;90.20;;;;;;5034758;28;20013;-69
2022/09/16 06:51:10;;;;;;;4.15;0.80;;;20.80;90.10;;;;;;5034840;28;20049;-68
2022/09/16 06:53:36;;;;;;;2.10;0.70;;;20.80;89.10;;;;;;5034309;28;20391;-69
2022/09/16 06:56:05;;;;;;;4.68;0.70;;;20.70;88.90;;;;;;5034525;28;20029;-69
2022/09/16 06:58:32;;;;;;;3.50;0.70;;;20.60;89.10;;;;;;5034698;28;20021;-69
2022/09/16 07:00:58;;;;;;;6.45;0.60;;;20.60;89.50;;;;;;5034480;28;20067;-76
2022/09/16 07:03:24;;;;;;;2.10;0.60;;;20.60;89.30;;;;;;5033852;28;20117;-68
2022/09/16 07:06:00;;;;;;;3.65;0.70;;;20.50;89.30;;;;;;5034628;28;20491;-68
2022/09/16 07:08:30;;;;;;;2.92;0.57;;;20.50;89.80;;;;;;5034795;28;20075;-75
2022/09/16 07:11:05;;;;;;;5.93;0.90;;;20.50;89.90;;;;;;5034740;28;20107;-69
2022/09/16 07:13:31;;;;;;;6.47;0.80;;;20.50;90.20;;;;;;5034155;28;20026;-69
2022/09/16 07:16:02;;;;;;;2.55;0.60;;;20.50;90.00;;;;;;5033868;28;20491;-70
2022/09/16 07:18:29;;;;;;;2.30;0.50;;;20.40;90.00;;;;;;5034559;28;20021;-68
2022/09/16 07:21:04;;;;;;;0.70;0.30;;;20.40;90.00;;;;;;5034548;28;20025;-68
2022/09/16 07:23:31;;;;;;;5.95;0.60;;;20.40;90.00;;;;;;5031624;28;20033;-77
2022/09/16 07:26:09;;;;;;;2.08;0.55;;;20.30;90.20;;;;;;5034368;28;20124;-76
2022/09/16 07:28:35;;;;;;;2.58;0.80;;;20.30;90.30;;;;;;5033449;28;20120;-76
2022/09/16 07:31:02;;;;;;;5.03;0.90;;;20.30;90.40;;;;;;5033578;28;20061;-76
2022/09/16 07:33:30;;;;;;;3.10;0.70;;;20.30;90.80;;;;;;5033278;28;20021;-76
2022/09/16 07:36:00;;;;;;;1.67;0.60;;;20.30;90.90;;;;;;5033703;28;20190;-75
2022/09/16 07:38:28;;;;;;;5.47;0.63;;;20.30;90.80;;;;;;5033742;28;20022;-69
2022/09/16 07:40:54;;;;;;;16.90;1.80;;;20.30;90.60;;;;;;5034029;28;20399;-75
2022/09/16 07:43:19;;;;;;;6.30;0.98;;;20.30;90.50;;;;;;5034155;28;20105;-75
2022/09/16 07:45:45;;;;;;;4.35;0.77;;;20.30;90.40;;;;;;5033877;28;20036;-69
2022/09/16 07:48:11;;;;;;;9.20;0.70;;;20.30;90.20;;;;;;5033958;28;20021;-74
2022/09/16 07:50:36;;;;;;;3.00;0.60;;;20.30;90.00;;;;;;5034068;28;20141;-75
2022/09/16 07:53:03;;;;;;;3.38;1.10;;;20.30;90.10;;;;;;5033592;28;20499;-76
2022/09/16 07:55:29;;;;;;;1.88;0.52;;;20.30;90.20;;;;;;5034194;28;20036;-77
2022/09/16 07:57:54;;;;;;;2.20;0.60;;;20.30;90.30;;;;;;5034250;28;20022;-75
2022/09/16 08:00:21;;;;;;;1.35;0.70;;;20.30;90.50;;;;;;5034362;28;20506;-72
2022/09/16 08:02:46;;;;;;;0.95;0.57;;;20.20;90.20;;;;;;5034764;28;20516;-69
2022/09/16 08:05:12;;;;;;;1.85;1.00;;;20.20;90.30;;;;;;5034161;28;20144;-68
2022/09/16 08:07:38;;;;;;;2.22;0.70;;;20.20;90.10;;;;;;5033937;28;20096;-69
2022/09/16 08:10:04;;;;;;;2.35;0.52;;;20.30;90.10;;;;;;5034016;28;20029;-69
2022/09/16 08:12:32;;;;;;;1.02;0.47;;;20.30;90.10;;;;;;5034397;28;20384;-68
2022/09/16 08:14:58;;;;;;;3.80;0.43;;;20.20;90.10;;;;;;5033218;28;20025;-69
2022/09/16 08:17:25;;;;;;;2.28;0.35;;;20.20;90.30;;;;;;5034281;28;20383;-68
2022/09/16 08:19:50;;;;;;;3.28;0.50;;;20.30;90.20;;;;;;5034137;28;20037;-68
2022/09/16 08:22:16;;;;;;;4.47;0.52;;;20.20;90.30;;;;;;5032930;28;20073;-68
2022/09/16 08:24:42;;;;;;;1.42;0.45;;;20.20;90.50;;;;;;5034183;28;20034;-68
2022/09/16 08:27:07;;;;;;;2.38;0.65;;;20.20;90.70;;;;;;5033538;28;20396;-68
2022/09/16 08:29:33;;;;;;;3.33;0.82;;;20.20;90.80;;;;;;5033852;28;20040;-68
2022/09/16 08:31:59;;;;;;;2.88;0.80;;;20.10;91.00;;;;;;5034015;28;20053;-68
2022/09/16 08:34:25;;;;;;;4.90;1.27;;;20.10;91.20;;;;;;5034071;28;20029;-68
2022/09/16 08:36:50;;;;;;;2.85;0.90;;;20.20;91.30;;;;;;5033744;28;20057;-69
2022/09/16 08:39:16;;;;;;;4.13;1.30;;;20.20;91.40;;;;;;5033773;28;20017;-68
2022/09/16 08:41:54;;;;;;;4.78;1.00;;;20.20;91.40;;;;;;5033046;28;20403;-69
2022/09/16 08:44:38;;;;;;;9.23;1.25;;;20.20;91.50;;;;;;5033247;28;20042;-68
2022/09/16 08:47:14;;;;;;;2.90;0.90;;;20.20;91.40;;;;;;5033093;28;20077;-69
2022/09/16 08:49:43;;;;;;;3.03;0.90;;;20.30;91.30;;;;;;5032813;28;20041;-71
2022/09/16 08:52:14;;;;;;;3.08;0.98;;;20.30;91.20;;;;;;5032960;28;20507;-77
2022/09/16 08:55:14;;;;;;;5.65;1.13;;;20.30;91.30;;;;;;5033449;28;20021;-68
2022/09/16 08:57:53;;;;;;;4.20;0.85;;;20.30;91.50;;;;;;5032618;28;20124;-69
2022/09/16 09:00:19;;;;;;;3.47;0.82;;;20.30;91.70;;;;;;5033450;28;20383;-68
2022/09/16 09:03:06;;;;;;;3.72;0.65;;;20.30;91.70;;;;;;5033262;28;20040;-68
2022/09/16 09:05:57;;;;;;;1.48;0.70;;;20.40;91.80;;;;;;5033138;28;20053;-68
2022/09/16 09:08:29;;;;;;;2.50;0.80;;;20.40;91.90;;;;;;5031711;28;20095;-68
2022/09/16 09:11:16;;;;;;;3.20;1.00;;;20.40;91.80;;;;;;5032993;28;20487;-68
2022/09/16 09:14:19;;;;;;;5.53;0.88;;;20.50;91.90;;;;;;5033047;28;20018;-68
2022/09/16 09:16:53;;;;;;;3.33;0.80;;;20.50;91.60;;;;;;4972301;28;20066;-68
2022/09/16 09:19:19;;;;;;;5.10;0.85;;;20.50;91.60;;;;;;5025107;28;20073;-69
2022/09/16 09:22:12;;;;;;;2.97;1.45;;;20.60;91.40;;;;;;5032899;28;20049;-69
2022/09/16 09:24:40;;;;;;;4.40;0.93;;;20.60;91.30;;;;;;5033083;28;20395;-69
2022/09/16 09:27:33;;;;;;;4.07;0.93;;;20.60;91.30;;;;;;5032607;28;20029;-69
2022/09/16 09:30:13;;;;;;;2.38;1.05;;;20.70;91.30;;;;;;5032558;28;20104;-69
2022/09/16 09:32:39;;;;;;;5.65;1.15;;;20.70;91.30;;;;;;5032603;28;20537;-79
2022/09/16 09:35:29;;;;;;;3.08;0.70;;;20.70;91.70;;;;;;5032205;28;20030;-69
2022/09/16 09:38:13;;;;;;;2.08;0.50;;;20.60;91.70;;;;;;5032600;28;20080;-77
2022/09/16 09:40:55;;;;;;;0.98;0.30;;;20.60;91.30;;;;;;5032789;28;20028;-75
2022/09/16 09:43:30;;;;;;;0.28;0.20;;;20.60;90.90;;;;;;5032387;28;20369;-69
2022/09/16 09:46:22;;;;;;;1.25;0.30;;;20.60;90.70;;;;;;5032307;28;20032;-69
2022/09/16 09:48:54;;;;;;;0.88;0.40;;;20.60;90.50;;;;;;5032672;28;20083;-76
2022/09/16 09:51:38;;;;;;;1.02;0.40;;;20.60;90.40;;;;;;5032119;28;20048;-69
2022/09/16 09:54:26;;;;;;;1.30;0.60;;;20.60;90.40;;;;;;5032341;28;20040;-69
2022/09/16 09:57:04;;;;;;;1.73;0.68;;;20.60;90.80;;;;;;5032351;28;20029;-68
2022/09/16 09:59:35;;;;;;;2.00;1.00;;;20.60;90.90;;;;;;5031880;28;20021;-69
2022/09/16 10:02:01;;;;;;;1.08;0.47;;;20.60;90.90;;;;;;5031458;28;20032;-77
2022/09/16 10:04:35;;;;;;;1.80;0.35;;;20.70;90.80;;;;;;5032255;28;20033;-68
2022/09/16 10:07:03;;;;;;;1.02;0.50;;;20.70;90.60;;;;;;5031547;28;20156;-69
2022/09/16 10:09:29;;;;;;;5.95;0.50;;;20.70;90.50;;;;;;5032366;28;20041;-68
2022/09/16 10:11:55;;;;;;;6.07;0.75;;;20.80;90.50;;;;;;5032884;28;20022;-69
2022/09/16 10:14:32;;;;;;;3.33;0.90;;;20.90;90.10;;;;;;5033047;28;20468;-68
2022/09/16 10:17:05;;;;;;;3.03;0.50;;;20.80;90.20;;;;;;5032065;28;20129;-68
2022/09/16 10:19:37;;;;;;;2.53;0.77;;;20.90;90.30;;;;;;5032300;28;20038;-69
2022/09/16 10:22:18;;;;;;;1.77;0.70;;;20.80;90.30;;;;;;5032516;28;20486;-68
2022/09/16 10:24:53;;;;;;;6.30;0.73;;;20.90;90.50;;;;;;5032533;28;20510;-69
2022/09/16 10:27:29;;;;;;;3.25;0.60;;;20.90;90.30;;;;;;5032192;28;20032;-69
2022/09/16 10:30:15;;;;;;;2.38;0.65;;;20.90;90.30;;;;;;5032726;28;20026;-69
2022/09/16 10:32:57;;;;;;;1.92;0.73;;;21.00;90.60;;;;;;5032219;28;20029;-68
2022/09/16 10:35:32;;;;;;;0.57;0.30;;;21.10;90.50;;;;;;5032395;28;20053;-69
2022/09/16 10:38:10;;;;;;;6.55;0.52;;;21.10;90.20;;;;;;5033672;28;20070;-68
2022/09/16 10:40:36;;;;;;;3.72;0.50;;;21.20;90.20;;;;;;5035969;28;20471;-68
2022/09/16 10:43:06;;;;;;;3.22;0.80;;;21.20;90.30;;;;;;5035841;28;20060;-68
2022/09/16 10:45:42;;;;;;;2.35;0.63;;;21.30;90.40;;;;;;5035835;28;20042;-77
2022/09/16 10:48:13;;;;;;;1.70;0.50;;;21.30;90.20;;;;;;5035676;28;20329;-69
2022/09/16 10:50:50;;;;;;;3.40;0.80;;;21.30;90.10;;;;;;5035797;28;20065;-68
2022/09/16 10:53:25;;;;;;;1.20;0.65;;;21.40;90.00;;;;;;5035776;28;20021;-68
2022/09/16 10:56:04;;;;;;;1.70;0.68;;;21.40;90.10;;;;;;5035742;28;20028;-68
2022/09/16 10:58:30;;;;;;;2.78;0.68;;;21.50;90.20;;;;;;5035679;28;20034;-69
2022/09/16 11:00:56;;;;;;;2.30;0.80;;;21.60;90.10;;;;;;5035607;28;20535;-68
2022/09/16 11:03:49;;;;;;;2.88;0.75;;;21.50;89.80;;;;;;5035635;28;20080;-68
2022/09/16 11:06:33;;;;;;;2.65;1.02;;;21.50;89.70;;;;;;5035666;28;20120;-69
2022/09/16 11:09:20;;;;;;;2.33;0.80;;;21.50;89.20;;;;;;5035158;28;20091;-68
2022/09/16 11:11:58;;;;;;;4.07;1.50;;;21.40;89.00;;;;;;5035462;28;20021;-69
2022/09/16 11:15:05;;;;;;;1.45;0.60;;;21.40;89.00;;;;;;5032332;28;20091;-69
2022/09/16 11:18:07;;;;;;;2.67;1.10;;;21.30;89.20;;;;;;5024327;28;20045;-68
2022/09/16 11:20:51;;;;;;;0.80;0.50;;;21.30;89.70;;;;;;5035008;28;20025;-69
2022/09/16 11:23:37;;;;;;;3.50;0.50;;;21.20;89.70;;;;;;5035064;28;20025;-75
2022/09/16 11:26:19;;;;;;;1.75;0.50;;;21.20;90.00;;;;;;5035136;28;20100;-69
2022/09/16 11:29:12;;;;;;;0.50;0.35;;;21.30;90.10;;;;;;5035016;28;20361;-78
2022/09/16 11:31:43;;;;;;;2.42;0.57;;;21.30;90.10;;;;;;5034936;28;20041;-69
2022/09/16 11:34:17;;;;;;;2.38;0.50;;;21.30;89.60;;;;;;5034520;28;20097;-78
2022/09/16 11:36:51;;;;;;;1.20;0.50;;;21.30;89.20;;;;;;5034751;28;20486;-69
2022/09/16 11:39:30;;;;;;;2.35;1.73;;;21.40;88.90;;;;;;5031871;28;20061;-69
2022/09/16 11:42:04;;;;;;;3.28;1.10;;;21.60;89.10;;;;;;5031902;28;20418;-69
2022/09/16 11:44:56;;;;;;;2.15;0.80;;;21.80;88.80;;;;;;5032553;28;20604;-68
2022/09/16 11:47:46;;;;;;;2.70;0.60;;;21.90;88.40;;;;;;5034309;28;20108;-70
2022/09/16 11:50:37;;;;;;;1.15;0.63;;;22.10;87.70;;;;;;5034566;28;20050;-76
2022/09/16 11:53:18;;;;;;;0.93;0.43;;;22.10;86.50;;;;;;5031326;28;20522;-68
2022/09/16 11:56:20;;;;;;;0.95;0.52;;;22.10;86.10;;;;;;5034558;28;20072;-68
2022/09/16 11:58:51;;;;;;;1.73;0.40;;;22.10;85.80;;;;;;5024109;28;20041;-68
2022/09/16 12:01:41;;;;;;;0.40;0.30;;;22.10;85.50;;;;;;5033996;28;20033;-68
2022/09/16 12:04:09;;;;;;;1.33;0.30;;;22.10;85.40;;;;;;5033474;28;20072;-69
2022/09/16 12:06:49;;;;;;;0.93;0.50;;;22.10;85.60;;;;;;5034167;28;20137;-69
2022/09/16 12:09:40;;;;;;;1.38;0.50;;;22.10;85.70;;;;;;5034154;28;20471;-77
2022/09/16 12:12:22;;;;;;;0.77;0.30;;;22.10;85.50;;;;;;5034237;28;20395;-78
2022/09/16 12:14:53;;;;;;;0.40;0.30;;;22.10;85.70;;;;;;5031943;28;20036;-76
2022/09/16 12:17:23;;;;;;;2.75;0.47;;;22.20;85.40;;;;;;5019261;28;20022;-75
2022/09/16 12:20:13;;;;;;;0.43;0.40;;;22.10;85.20;;;;;;5026068;28;20388;-69
2022/09/16 12:22:48;;;;;;;0.52;0.25;;;22.10;85.60;;;;;;5013585;28;20049;-75
2022/09/16 12:25:37;;;;;;;0.88;0.40;;;22.10;85.50;;;;;;5013952;28;20073;-69
2022/09/16 12:28:15;;;;;;;1.30;0.40;;;22.10;85.30;;;;;;5012737;28;20113;-77
2022/09/16 12:30:48;;;;;;;1.48;0.30;;;22.20;85.20;;;;;;5013892;28;20026;-70
2022/09/16 12:33:21;;;;;;;0.68;0.30;;;22.10;85.10;;;;;;5013665;28;20018;-68
2022/09/16 12:35:57;;;;;;;2.72;0.40;;;22.10;84.80;;;;;;5013774;28;20109;-69
2022/09/16 12:38:23;;;;;;;1.55;0.50;;;22.10;84.90;;;;;;5013676;28;20029;-68
2022/09/16 12:40:55;;;;;;;1.67;0.60;;;22.10;85.20;;;;;;5014064;28;20029;-67
2022/09/16 12:43:41;;;;;;;2.22;0.63;;;22.00;85.80;;;;;;5014535;28;20113;-73
2022/09/16 12:46:19;;;;;;;1.08;0.68;;;22.00;86.80;;;;;;5013425;28;20046;-68
2022/09/16 12:48:57;;;;;;;5.18;0.60;;;22.10;87.20;;;;;;5013847;28;20041;-68
2022/09/16 12:51:51;;;;;;;1.52;0.50;;;22.10;87.30;;;;;;5013866;28;20054;-68
2022/09/16 12:55:14;;;;;;;1.80;0.50;;;22.20;87.10;;;;;;5013873;28;20056;-81
2022/09/16 12:57:58;;;;;;;2.85;0.40;;;22.40;86.30;;;;;;4953217;29;20031;-69
2022/09/16 13:00:55;;;;;;;0.40;0.30;;;22.50;85.20;;;;;;4952866;28;20047;-69
2022/09/16 13:03:26;;;;;;;0.30;0.30;;;22.70;84.50;;;;;;5008304;28;20120;-69
2022/09/16 13:05:55;;;;;;;0.73;0.13;;;22.80;83.60;;;;;;5012732;28;20038;-68
2022/09/16 13:08:26;;;;;;;1.23;0.32;;;22.90;82.80;;;;;;5013359;28;20042;-72
2022/09/16 13:11:22;;;;;;;0.20;0.20;;;23.00;82.60;;;;;;5013357;28;20029;-69
2022/09/16 13:13:50;;;;;;;0.57;0.20;;;23.10;81.80;;;;;;5008509;28;20148;-69
2022/09/16 13:16:34;;;;;;;0.32;0.20;;;23.20;80.20;;;;;;5013331;28;20022;-68
2022/09/16 13:19:30;;;;;;;0.30;0.30;;;23.20;80.50;;;;;;5012973;28;20033;-68